sensor_id;sensor_type;location;lat;lon;timestamp;temperature;humidity
12901;DHT22;6518;50.930;5.344;2022-09-01T00:01:35;20.90;55.20
12901;DHT22;6518;50.930;5.344;2022-09-01T00:04:08;20.90;55.30
12901;DHT22;6518;50.930;5.344;2022-09-01T00:06:37;20.80;55.20
12901;DHT22;6518;50.930;5.344;2022-09-01T00:09:06;20.80;55.30
12901;DHT22;6518;50.930;5.344;2022-09-01T00:11:34;20.70;55.30
12901;DHT22;6518;50.930;5.344;2022-09-01T00:14:02;20.70;55.50
12901;DHT22;6518;50.930;5.344;2022-09-01T00:16:31;20.70;55.60
12901;DHT22;6518;50.930;5.344;2022-09-01T00:18:58;20.70;55.50
12901;DHT22;6518;50.930;5.344;2022-09-01T00:21:28;20.70;55.50
12901;DHT22;6518;50.930;5.344;2022-09-01T00:23:56;20.60;55.40
12901;DHT22;6518;50.930;5.344;2022-09-01T00:26:23;20.60;55.40
12901;DHT22;6518;50.930;5.344;2022-09-01T00:28:50;20.60;55.40
12901;DHT22;6518;50.930;5.344;2022-09-01T00:31:17;20.60;55.40
12901;DHT22;6518;50.930;5.344;2022-09-01T00:33:45;20.70;55.50
12901;DHT22;6518;50.930;5.344;2022-09-01T00:36:12;20.50;55.40
12901;DHT22;6518;50.930;5.344;2022-09-01T00:38:41;20.50;55.40
12901;DHT22;6518;50.930;5.344;2022-09-01T00:41:08;20.50;55.30
12901;DHT22;6518;50.930;5.344;2022-09-01T00:43:39;20.40;55.30
12901;DHT22;6518;50.930;5.344;2022-09-01T00:46:09;20.40;55.30
12901;DHT22;6518;50.930;5.344;2022-09-01T00:48:37;20.40;55.40
12901;DHT22;6518;50.930;5.344;2022-09-01T00:51:06;20.40;55.50
12901;DHT22;6518;50.930;5.344;2022-09-01T00:53:35;20.30;55.50
12901;DHT22;6518;50.930;5.344;2022-09-01T00:56:06;20.30;55.70
12901;DHT22;6518;50.930;5.344;2022-09-01T00:58:35;20.30;55.70
12901;DHT22;6518;50.930;5.344;2022-09-01T01:01:04;20.30;55.80
12901;DHT22;6518;50.930;5.344;2022-09-01T01:03:31;20.30;56.00
12901;DHT22;6518;50.930;5.344;2022-09-01T01:06:02;20.30;55.90
12901;DHT22;6518;50.930;5.344;2022-09-01T01:08:34;20.20;55.80
12901;DHT22;6518;50.930;5.344;2022-09-01T01:11:05;20.20;56.50
12901;DHT22;6518;50.930;5.344;2022-09-01T01:13:47;20.20;56.00
12901;DHT22;6518;50.930;5.344;2022-09-01T01:16:15;20.20;56.00
12901;DHT22;6518;50.930;5.344;2022-09-01T01:18:43;20.10;55.90
12901;DHT22;6518;50.930;5.344;2022-09-01T01:21:14;20.10;56.00
12901;DHT22;6518;50.930;5.344;2022-09-01T01:24:03;20.10;56.50
12901;DHT22;6518;50.930;5.344;2022-09-01T01:26:33;20.00;56.00
12901;DHT22;6518;50.930;5.344;2022-09-01T01:29:00;20.00;56.00
12901;DHT22;6518;50.930;5.344;2022-09-01T01:31:28;19.90;56.10
12901;DHT22;6518;50.930;5.344;2022-09-01T01:33:56;19.90;56.20
12901;DHT22;6518;50.930;5.344;2022-09-01T01:36:26;19.80;56.20
12901;DHT22;6518;50.930;5.344;2022-09-01T01:38:58;19.80;56.30
12901;DHT22;6518;50.930;5.344;2022-09-01T01:41:26;19.80;56.60
12901;DHT22;6518;50.930;5.344;2022-09-01T01:43:56;19.70;56.60
12901;DHT22;6518;50.930;5.344;2022-09-01T01:46:24;19.70;56.80
12901;DHT22;6518;50.930;5.344;2022-09-01T01:48:52;19.70;56.90
12901;DHT22;6518;50.930;5.344;2022-09-01T01:51:21;19.80;56.90
12901;DHT22;6518;50.930;5.344;2022-09-01T01:53:51;19.80;56.80
12901;DHT22;6518;50.930;5.344;2022-09-01T01:56:21;19.80;56.80
12901;DHT22;6518;50.930;5.344;2022-09-01T01:58:50;19.70;57.30
12901;DHT22;6518;50.930;5.344;2022-09-01T02:01:22;19.70;56.70
12901;DHT22;6518;50.930;5.344;2022-09-01T02:03:50;19.70;56.70
12901;DHT22;6518;50.930;5.344;2022-09-01T02:06:20;19.60;56.80
12901;DHT22;6518;50.930;5.344;2022-09-01T02:08:50;19.60;56.80
12901;DHT22;6518;50.930;5.344;2022-09-01T02:11:18;19.60;56.80
12901;DHT22;6518;50.930;5.344;2022-09-01T02:13:45;19.60;56.70
12901;DHT22;6518;50.930;5.344;2022-09-01T02:16:14;19.60;56.70
12901;DHT22;6518;50.930;5.344;2022-09-01T02:18:45;19.60;56.70
12901;DHT22;6518;50.930;5.344;2022-09-01T02:21:14;19.50;56.80
12901;DHT22;6518;50.930;5.344;2022-09-01T02:23:46;19.50;56.80
12901;DHT22;6518;50.930;5.344;2022-09-01T02:26:14;19.40;57.00
12901;DHT22;6518;50.930;5.344;2022-09-01T02:28:45;19.40;57.10
12901;DHT22;6518;50.930;5.344;2022-09-01T02:31:13;19.40;57.20
12901;DHT22;6518;50.930;5.344;2022-09-01T02:33:45;19.40;57.20
12901;DHT22;6518;50.930;5.344;2022-09-01T02:36:15;19.40;57.20
12901;DHT22;6518;50.930;5.344;2022-09-01T02:38:44;19.30;57.10
12901;DHT22;6518;50.930;5.344;2022-09-01T02:41:14;19.30;57.10
12901;DHT22;6518;50.930;5.344;2022-09-01T02:43:48;19.20;57.10
12901;DHT22;6518;50.930;5.344;2022-09-01T02:46:15;19.20;57.30
12901;DHT22;6518;50.930;5.344;2022-09-01T02:48:44;19.10;57.50
12901;DHT22;6518;50.930;5.344;2022-09-01T02:51:17;19.00;57.60
12901;DHT22;6518;50.930;5.344;2022-09-01T02:53:46;19.00;57.70
12901;DHT22;6518;50.930;5.344;2022-09-01T02:56:17;19.00;57.90
12901;DHT22;6518;50.930;5.344;2022-09-01T02:58:45;19.00;58.00
12901;DHT22;6518;50.930;5.344;2022-09-01T03:01:14;19.00;58.00
12901;DHT22;6518;50.930;5.344;2022-09-01T03:03:50;19.00;58.00
12901;DHT22;6518;50.930;5.344;2022-09-01T03:06:18;18.90;58.10
12901;DHT22;6518;50.930;5.344;2022-09-01T03:08:45;18.90;58.20
12901;DHT22;6518;50.930;5.344;2022-09-01T03:11:13;18.90;58.30
12901;DHT22;6518;50.930;5.344;2022-09-01T03:13:41;18.90;58.40
12901;DHT22;6518;50.930;5.344;2022-09-01T03:16:08;18.80;58.30
12901;DHT22;6518;50.930;5.344;2022-09-01T03:18:36;18.80;58.30
12901;DHT22;6518;50.930;5.344;2022-09-01T03:21:06;18.80;58.40
12901;DHT22;6518;50.930;5.344;2022-09-01T03:23:34;18.80;58.60
12901;DHT22;6518;50.930;5.344;2022-09-01T03:26:01;18.80;58.60
12901;DHT22;6518;50.930;5.344;2022-09-01T03:28:28;18.70;58.60
12901;DHT22;6518;50.930;5.344;2022-09-01T03:30:57;18.70;58.70
12901;DHT22;6518;50.930;5.344;2022-09-01T03:33:25;18.60;58.60
12901;DHT22;6518;50.930;5.344;2022-09-01T03:35:53;18.60;58.70
12901;DHT22;6518;50.930;5.344;2022-09-01T03:38:22;18.50;58.90
12901;DHT22;6518;50.930;5.344;2022-09-01T03:40:51;18.50;58.90
12901;DHT22;6518;50.930;5.344;2022-09-01T03:43:19;18.50;59.00
12901;DHT22;6518;50.930;5.344;2022-09-01T03:45:48;18.50;59.20
12901;DHT22;6518;50.930;5.344;2022-09-01T03:48:15;18.50;59.20
12901;DHT22;6518;50.930;5.344;2022-09-01T03:50:43;18.50;59.30
12901;DHT22;6518;50.930;5.344;2022-09-01T03:53:12;18.50;59.50
12901;DHT22;6518;50.930;5.344;2022-09-01T03:55:44;18.50;60.30
12901;DHT22;6518;50.930;5.344;2022-09-01T03:58:12;18.50;59.60
12901;DHT22;6518;50.930;5.344;2022-09-01T04:00:46;18.50;59.70
12901;DHT22;6518;50.930;5.344;2022-09-01T04:03:15;18.50;59.70
12901;DHT22;6518;50.930;5.344;2022-09-01T04:05:48;18.60;59.80
12901;DHT22;6518;50.930;5.344;2022-09-01T04:08:17;18.60;59.70
12901;DHT22;6518;50.930;5.344;2022-09-01T04:10:48;18.60;59.70
12901;DHT22;6518;50.930;5.344;2022-09-01T04:13:16;18.50;59.70
12901;DHT22;6518;50.930;5.344;2022-09-01T04:15:43;18.50;59.80
12901;DHT22;6518;50.930;5.344;2022-09-01T04:18:10;18.50;59.80
12901;DHT22;6518;50.930;5.344;2022-09-01T04:20:46;18.50;59.80
12901;DHT22;6518;50.930;5.344;2022-09-01T04:23:15;18.40;59.90
12901;DHT22;6518;50.930;5.344;2022-09-01T04:25:47;18.40;60.00
12901;DHT22;6518;50.930;5.344;2022-09-01T04:28:16;18.40;60.10
12901;DHT22;6518;50.930;5.344;2022-09-01T04:30:49;18.40;60.20
12901;DHT22;6518;50.930;5.344;2022-09-01T04:33:16;18.40;60.20
12901;DHT22;6518;50.930;5.344;2022-09-01T04:35:43;18.40;60.20
12901;DHT22;6518;50.930;5.344;2022-09-01T04:38:10;18.40;60.50
12901;DHT22;6518;50.930;5.344;2022-09-01T04:40:41;18.30;60.30
12901;DHT22;6518;50.930;5.344;2022-09-01T04:43:09;18.30;60.40
12901;DHT22;6518;50.930;5.344;2022-09-01T04:45:37;18.30;60.50
12901;DHT22;6518;50.930;5.344;2022-09-01T04:48:09;18.30;60.60
12901;DHT22;6518;50.930;5.344;2022-09-01T04:50:39;18.30;60.60
12901;DHT22;6518;50.930;5.344;2022-09-01T04:53:06;18.20;60.70
12901;DHT22;6518;50.930;5.344;2022-09-01T04:55:38;18.20;60.80
12901;DHT22;6518;50.930;5.344;2022-09-01T04:58:10;18.20;61.00
12901;DHT22;6518;50.930;5.344;2022-09-01T05:00:38;18.20;61.10
12901;DHT22;6518;50.930;5.344;2022-09-01T05:03:06;18.20;61.90
12901;DHT22;6518;50.930;5.344;2022-09-01T05:05:37;18.10;61.10
12901;DHT22;6518;50.930;5.344;2022-09-01T05:08:08;18.20;61.30
12901;DHT22;6518;50.930;5.344;2022-09-01T05:10:40;18.10;61.40
12901;DHT22;6518;50.930;5.344;2022-09-01T05:13:09;18.10;61.50
12901;DHT22;6518;50.930;5.344;2022-09-01T05:15:38;18.10;61.50
12901;DHT22;6518;50.930;5.344;2022-09-01T05:18:12;18.00;61.50
12901;DHT22;6518;50.930;5.344;2022-09-01T05:20:39;18.00;61.50
12901;DHT22;6518;50.930;5.344;2022-09-01T05:23:09;18.00;61.70
12901;DHT22;6518;50.930;5.344;2022-09-01T05:25:39;18.00;61.90
12901;DHT22;6518;50.930;5.344;2022-09-01T05:28:07;18.00;62.10
12901;DHT22;6518;50.930;5.344;2022-09-01T05:30:40;18.10;62.90
12901;DHT22;6518;50.930;5.344;2022-09-01T05:33:08;18.10;61.90
12901;DHT22;6518;50.930;5.344;2022-09-01T05:35:38;18.10;61.80
12901;DHT22;6518;50.930;5.344;2022-09-01T05:38:08;18.10;61.90
12901;DHT22;6518;50.930;5.344;2022-09-01T05:40:38;18.10;62.00
12901;DHT22;6518;50.930;5.344;2022-09-01T05:43:07;18.10;62.10
12901;DHT22;6518;50.930;5.344;2022-09-01T05:45:35;18.10;62.20
12901;DHT22;6518;50.930;5.344;2022-09-01T05:48:04;18.00;63.10
12901;DHT22;6518;50.930;5.344;2022-09-01T05:50:34;18.10;62.40
12901;DHT22;6518;50.930;5.344;2022-09-01T05:53:05;18.10;62.30
12901;DHT22;6518;50.930;5.344;2022-09-01T05:55:36;18.10;62.40
12901;DHT22;6518;50.930;5.344;2022-09-01T05:58:03;18.10;62.60
12901;DHT22;6518;50.930;5.344;2022-09-01T06:00:30;18.10;62.70
12901;DHT22;6518;50.930;5.344;2022-09-01T06:02:59;18.10;62.70
12901;DHT22;6518;50.930;5.344;2022-09-01T06:05:33;18.10;62.90
12901;DHT22;6518;50.930;5.344;2022-09-01T06:08:01;18.20;62.80
12901;DHT22;6518;50.930;5.344;2022-09-01T06:10:30;18.40;63.10
12901;DHT22;6518;50.930;5.344;2022-09-01T06:12:59;18.30;62.80
12901;DHT22;6518;50.930;5.344;2022-09-01T06:15:27;18.40;62.70
12901;DHT22;6518;50.930;5.344;2022-09-01T06:17:55;18.40;63.00
12901;DHT22;6518;50.930;5.344;2022-09-01T06:20:22;18.50;62.90
12901;DHT22;6518;50.930;5.344;2022-09-01T06:22:50;18.60;62.90
12901;DHT22;6518;50.930;5.344;2022-09-01T06:25:18;18.60;62.70
12901;DHT22;6518;50.930;5.344;2022-09-01T06:27:45;18.70;62.50
12901;DHT22;6518;50.930;5.344;2022-09-01T06:30:14;18.80;62.60
12901;DHT22;6518;50.930;5.344;2022-09-01T06:32:45;18.80;62.40
12901;DHT22;6518;50.930;5.344;2022-09-01T06:35:15;18.90;62.60
12901;DHT22;6518;50.930;5.344;2022-09-01T06:37:43;19.00;62.60
12901;DHT22;6518;50.930;5.344;2022-09-01T06:40:13;19.10;62.50
12901;DHT22;6518;50.930;5.344;2022-09-01T06:42:43;19.20;62.40
12901;DHT22;6518;50.930;5.344;2022-09-01T06:45:12;19.30;62.00
12901;DHT22;6518;50.930;5.344;2022-09-01T06:47:39;19.30;61.90
12901;DHT22;6518;50.930;5.344;2022-09-01T06:50:10;19.30;62.10
12901;DHT22;6518;50.930;5.344;2022-09-01T06:52:40;19.40;62.00
12901;DHT22;6518;50.930;5.344;2022-09-01T06:55:08;19.40;62.00
12901;DHT22;6518;50.930;5.344;2022-09-01T06:57:37;19.50;61.90
12901;DHT22;6518;50.930;5.344;2022-09-01T07:00:06;19.60;61.30
12901;DHT22;6518;50.930;5.344;2022-09-01T07:02:43;19.60;61.10
12901;DHT22;6518;50.930;5.344;2022-09-01T07:05:10;19.70;61.20
12901;DHT22;6518;50.930;5.344;2022-09-01T07:07:39;19.80;61.10
12901;DHT22;6518;50.930;5.344;2022-09-01T07:10:08;19.80;60.70
12901;DHT22;6518;50.930;5.344;2022-09-01T07:12:36;19.80;60.40
12901;DHT22;6518;50.930;5.344;2022-09-01T07:15:06;19.90;60.40
12901;DHT22;6518;50.930;5.344;2022-09-01T07:17:33;19.90;60.40
12901;DHT22;6518;50.930;5.344;2022-09-01T07:20:01;20.00;60.30
12901;DHT22;6518;50.930;5.344;2022-09-01T07:22:28;20.00;60.10
12901;DHT22;6518;50.930;5.344;2022-09-01T07:24:55;20.10;60.00
12901;DHT22;6518;50.930;5.344;2022-09-01T07:27:23;20.20;60.20
12901;DHT22;6518;50.930;5.344;2022-09-01T07:29:54;20.30;59.90
12901;DHT22;6518;50.930;5.344;2022-09-01T07:32:21;20.30;59.70
12901;DHT22;6518;50.930;5.344;2022-09-01T07:34:49;20.40;59.80
12901;DHT22;6518;50.930;5.344;2022-09-01T07:37:16;20.40;59.70
12901;DHT22;6518;50.930;5.344;2022-09-01T07:39:47;20.50;59.70
12901;DHT22;6518;50.930;5.344;2022-09-01T07:42:16;20.50;59.30
12901;DHT22;6518;50.930;5.344;2022-09-01T07:44:43;20.60;59.20
12901;DHT22;6518;50.930;5.344;2022-09-01T07:47:11;20.60;59.10
12901;DHT22;6518;50.930;5.344;2022-09-01T07:49:40;20.70;59.20
12901;DHT22;6518;50.930;5.344;2022-09-01T07:52:07;20.80;59.10
12901;DHT22;6518;50.930;5.344;2022-09-01T07:54:34;20.80;58.80
12901;DHT22;6518;50.930;5.344;2022-09-01T07:57:02;20.90;58.70
12901;DHT22;6518;50.930;5.344;2022-09-01T07:59:29;21.00;58.70
12901;DHT22;6518;50.930;5.344;2022-09-01T08:01:58;21.00;58.60
12901;DHT22;6518;50.930;5.344;2022-09-01T08:04:30;21.10;58.40
12901;DHT22;6518;50.930;5.344;2022-09-01T08:06:58;21.20;58.20
12901;DHT22;6518;50.930;5.344;2022-09-01T08:09:25;21.20;58.30
12901;DHT22;6518;50.930;5.344;2022-09-01T08:11:52;21.20;58.20
12901;DHT22;6518;50.930;5.344;2022-09-01T08:14:19;21.30;57.90
12901;DHT22;6518;50.930;5.344;2022-09-01T08:16:46;21.40;57.80
12901;DHT22;6518;50.930;5.344;2022-09-01T08:19:13;21.40;57.70
12901;DHT22;6518;50.930;5.344;2022-09-01T08:21:41;21.50;57.60
12901;DHT22;6518;50.930;5.344;2022-09-01T08:24:08;21.50;57.60
12901;DHT22;6518;50.930;5.344;2022-09-01T08:26:35;21.60;57.70
12901;DHT22;6518;50.930;5.344;2022-09-01T08:29:02;21.70;57.50
12901;DHT22;6518;50.930;5.344;2022-09-01T08:31:29;21.70;57.20
12901;DHT22;6518;50.930;5.344;2022-09-01T08:33:57;21.70;57.20
12901;DHT22;6518;50.930;5.344;2022-09-01T08:36:24;21.70;57.20
12901;DHT22;6518;50.930;5.344;2022-09-01T08:38:53;21.70;57.10
12901;DHT22;6518;50.930;5.344;2022-09-01T08:41:41;21.80;57.00
12901;DHT22;6518;50.930;5.344;2022-09-01T08:44:15;21.80;56.90
12901;DHT22;6518;50.930;5.344;2022-09-01T08:46:44;21.90;57.10
12901;DHT22;6518;50.930;5.344;2022-09-01T08:49:14;22.00;57.00
12901;DHT22;6518;50.930;5.344;2022-09-01T08:51:45;22.00;56.90
12901;DHT22;6518;50.930;5.344;2022-09-01T08:54:21;22.00;56.90
12901;DHT22;6518;50.930;5.344;2022-09-01T08:56:52;22.10;56.90
12901;DHT22;6518;50.930;5.344;2022-09-01T08:59:20;22.20;56.90
12901;DHT22;6518;50.930;5.344;2022-09-01T09:01:52;22.20;56.80
12901;DHT22;6518;50.930;5.344;2022-09-01T09:04:42;22.30;56.60
12901;DHT22;6518;50.930;5.344;2022-09-01T09:07:25;22.30;56.20
12901;DHT22;6518;50.930;5.344;2022-09-01T09:10:04;22.30;56.00
12901;DHT22;6518;50.930;5.344;2022-09-01T09:12:42;22.40;55.90
12901;DHT22;6518;50.930;5.344;2022-09-01T09:15:14;22.40;55.10
12901;DHT22;6518;50.930;5.344;2022-09-01T09:17:47;22.50;55.00
12901;DHT22;6518;50.930;5.344;2022-09-01T09:20:15;22.50;55.00
12901;DHT22;6518;50.930;5.344;2022-09-01T09:22:44;22.50;55.00
12901;DHT22;6518;50.930;5.344;2022-09-01T09:25:16;22.60;55.00
12901;DHT22;6518;50.930;5.344;2022-09-01T09:27:45;22.70;54.80
12901;DHT22;6518;50.930;5.344;2022-09-01T09:30:14;22.70;54.70
12901;DHT22;6518;50.930;5.344;2022-09-01T09:32:48;22.80;54.70
12901;DHT22;6518;50.930;5.344;2022-09-01T09:35:22;22.90;54.50
12901;DHT22;6518;50.930;5.344;2022-09-01T09:37:49;23.00;54.40
12901;DHT22;6518;50.930;5.344;2022-09-01T09:40:19;23.00;54.00
12901;DHT22;6518;50.930;5.344;2022-09-01T09:43:05;23.10;53.50
12901;DHT22;6518;50.930;5.344;2022-09-01T09:45:35;23.10;53.30
12901;DHT22;6518;50.930;5.344;2022-09-01T09:48:06;23.00;53.20
12901;DHT22;6518;50.930;5.344;2022-09-01T09:50:36;23.10;53.10
12901;DHT22;6518;50.930;5.344;2022-09-01T09:53:13;23.10;53.10
12901;DHT22;6518;50.930;5.344;2022-09-01T09:55:54;23.20;53.30
12901;DHT22;6518;50.930;5.344;2022-09-01T09:58:25;23.20;52.90
12901;DHT22;6518;50.930;5.344;2022-09-01T10:01:02;23.30;52.20
12901;DHT22;6518;50.930;5.344;2022-09-01T10:03:42;23.30;51.90
12901;DHT22;6518;50.930;5.344;2022-09-01T10:06:11;23.30;52.00
12901;DHT22;6518;50.930;5.344;2022-09-01T10:08:41;23.30;52.10
12901;DHT22;6518;50.930;5.344;2022-09-01T10:11:27;23.40;52.20
12901;DHT22;6518;50.930;5.344;2022-09-01T10:13:55;23.40;51.80
12901;DHT22;6518;50.930;5.344;2022-09-01T10:16:26;23.50;52.00
12901;DHT22;6518;50.930;5.344;2022-09-01T10:18:57;23.50;52.00
12901;DHT22;6518;50.930;5.344;2022-09-01T10:21:31;23.60;52.30
12901;DHT22;6518;50.930;5.344;2022-09-01T10:23:59;23.60;51.50
12901;DHT22;6518;50.930;5.344;2022-09-01T10:26:32;23.60;51.80
12901;DHT22;6518;50.930;5.344;2022-09-01T10:29:08;23.60;51.60
12901;DHT22;6518;50.930;5.344;2022-09-01T10:31:39;23.70;51.50
12901;DHT22;6518;50.930;5.344;2022-09-01T10:34:07;23.70;51.20
12901;DHT22;6518;50.930;5.344;2022-09-01T10:36:42;23.80;50.80
12901;DHT22;6518;50.930;5.344;2022-09-01T10:39:10;23.80;50.50
12901;DHT22;6518;50.930;5.344;2022-09-01T10:42:00;23.90;50.40
12901;DHT22;6518;50.930;5.344;2022-09-01T10:44:33;23.90;49.60
12901;DHT22;6518;50.930;5.344;2022-09-01T10:47:02;24.10;50.00
12901;DHT22;6518;50.930;5.344;2022-09-01T10:49:58;24.20;49.90
12901;DHT22;6518;50.930;5.344;2022-09-01T10:55:39;24.40;48.40
12901;DHT22;6518;50.930;5.344;2022-09-01T11:01:09;24.40;47.90
12901;DHT22;6518;50.930;5.344;2022-09-01T11:03:58;24.40;48.10
12901;DHT22;6518;50.930;5.344;2022-09-01T11:06:53;24.50;46.40
12901;DHT22;6518;50.930;5.344;2022-09-01T11:09:24;24.50;46.10
12901;DHT22;6518;50.930;5.344;2022-09-01T11:12:15;24.50;46.30
12901;DHT22;6518;50.930;5.344;2022-09-01T11:14:50;24.50;46.10
12901;DHT22;6518;50.930;5.344;2022-09-01T11:17:20;24.40;46.20
12901;DHT22;6518;50.930;5.344;2022-09-01T11:20:11;24.40;45.90
12901;DHT22;6518;50.930;5.344;2022-09-01T11:22:58;24.50;45.70
12901;DHT22;6518;50.930;5.344;2022-09-01T11:25:34;24.50;45.80
12901;DHT22;6518;50.930;5.344;2022-09-01T11:34:18;24.70;45.00
12901;DHT22;6518;50.930;5.344;2022-09-01T11:36:54;24.70;44.70
12901;DHT22;6518;50.930;5.344;2022-09-01T11:39:42;24.70;44.60
12901;DHT22;6518;50.930;5.344;2022-09-01T11:42:18;24.70;44.20
12901;DHT22;6518;50.930;5.344;2022-09-01T11:44:48;24.70;44.40
12901;DHT22;6518;50.930;5.344;2022-09-01T11:47:20;24.70;44.20
12901;DHT22;6518;50.930;5.344;2022-09-01T11:49:53;24.70;44.20
12901;DHT22;6518;50.930;5.344;2022-09-01T11:52:23;24.70;44.30
12901;DHT22;6518;50.930;5.344;2022-09-01T11:54:51;24.80;44.20
12901;DHT22;6518;50.930;5.344;2022-09-01T11:57:22;24.80;44.20
12901;DHT22;6518;50.930;5.344;2022-09-01T11:59:50;24.90;44.20
12901;DHT22;6518;50.930;5.344;2022-09-01T12:02:20;24.90;43.70
12901;DHT22;6518;50.930;5.344;2022-09-01T12:04:48;24.90;44.00
12901;DHT22;6518;50.930;5.344;2022-09-01T12:07:25;24.90;44.10
12901;DHT22;6518;50.930;5.344;2022-09-01T12:09:53;25.10;44.10
12901;DHT22;6518;50.930;5.344;2022-09-01T12:12:32;25.00;44.10
12901;DHT22;6518;50.930;5.344;2022-09-01T12:15:02;25.00;43.90
12901;DHT22;6518;50.930;5.344;2022-09-01T12:17:31;25.10;43.90
12901;DHT22;6518;50.930;5.344;2022-09-01T12:20:19;25.10;43.80
12901;DHT22;6518;50.930;5.344;2022-09-01T12:22:46;25.10;43.60
12901;DHT22;6518;50.930;5.344;2022-09-01T12:25:19;25.10;43.60
12901;DHT22;6518;50.930;5.344;2022-09-01T12:27:48;25.10;43.30
12901;DHT22;6518;50.930;5.344;2022-09-01T12:30:15;25.10;43.50
12901;DHT22;6518;50.930;5.344;2022-09-01T12:32:43;25.10;43.10
12901;DHT22;6518;50.930;5.344;2022-09-01T12:35:16;25.00;42.90
12901;DHT22;6518;50.930;5.344;2022-09-01T12:37:44;25.00;42.90
12901;DHT22;6518;50.930;5.344;2022-09-01T12:40:22;25.00;43.00
12901;DHT22;6518;50.930;5.344;2022-09-01T12:42:51;25.00;43.00
12901;DHT22;6518;50.930;5.344;2022-09-01T12:45:40;25.10;43.00
12901;DHT22;6518;50.930;5.344;2022-09-01T12:48:22;25.10;42.90
12901;DHT22;6518;50.930;5.344;2022-09-01T12:50:50;25.10;42.30
12901;DHT22;6518;50.930;5.344;2022-09-01T12:53:21;25.10;42.60
12901;DHT22;6518;50.930;5.344;2022-09-01T12:58:47;25.10;42.40
12901;DHT22;6518;50.930;5.344;2022-09-01T13:01:28;25.10;42.40
12901;DHT22;6518;50.930;5.344;2022-09-01T13:04:11;25.10;42.30
12901;DHT22;6518;50.930;5.344;2022-09-01T13:06:38;25.10;42.10
12901;DHT22;6518;50.930;5.344;2022-09-01T13:09:05;25.10;42.30
12901;DHT22;6518;50.930;5.344;2022-09-01T13:11:32;25.10;42.20
12901;DHT22;6518;50.930;5.344;2022-09-01T13:13:59;25.10;42.20
12901;DHT22;6518;50.930;5.344;2022-09-01T13:16:26;25.20;42.40
12901;DHT22;6518;50.930;5.344;2022-09-01T13:18:53;25.20;42.30
12901;DHT22;6518;50.930;5.344;2022-09-01T13:21:21;25.20;42.40
12901;DHT22;6518;50.930;5.344;2022-09-01T13:23:48;25.20;42.60
12901;DHT22;6518;50.930;5.344;2022-09-01T13:26:15;25.30;42.60
12901;DHT22;6518;50.930;5.344;2022-09-01T13:28:42;25.30;42.50
12901;DHT22;6518;50.930;5.344;2022-09-01T13:31:10;25.30;42.60
12901;DHT22;6518;50.930;5.344;2022-09-01T13:33:37;25.30;42.50
12901;DHT22;6518;50.930;5.344;2022-09-01T13:36:05;25.30;42.60
12901;DHT22;6518;50.930;5.344;2022-09-01T13:38:33;25.30;42.10
12901;DHT22;6518;50.930;5.344;2022-09-01T13:41:00;25.40;42.20
12901;DHT22;6518;50.930;5.344;2022-09-01T13:43:27;25.40;42.00
12901;DHT22;6518;50.930;5.344;2022-09-01T13:45:56;25.40;42.00
12901;DHT22;6518;50.930;5.344;2022-09-01T13:48:23;25.40;41.90
12901;DHT22;6518;50.930;5.344;2022-09-01T13:50:51;25.50;41.60
12901;DHT22;6518;50.930;5.344;2022-09-01T13:53:18;25.50;41.50
12901;DHT22;6518;50.930;5.344;2022-09-01T13:55:47;25.50;41.50
12901;DHT22;6518;50.930;5.344;2022-09-01T13:58:14;25.50;41.40
12901;DHT22;6518;50.930;5.344;2022-09-01T14:00:44;25.50;42.30
12901;DHT22;6518;50.930;5.344;2022-09-01T14:03:14;25.50;41.50
12901;DHT22;6518;50.930;5.344;2022-09-01T14:05:44;25.50;41.40
12901;DHT22;6518;50.930;5.344;2022-09-01T14:08:13;25.50;41.50
12901;DHT22;6518;50.930;5.344;2022-09-01T14:10:41;25.50;41.50
12901;DHT22;6518;50.930;5.344;2022-09-01T14:13:11;25.50;41.50
12901;DHT22;6518;50.930;5.344;2022-09-01T14:15:38;25.50;41.20
12901;DHT22;6518;50.930;5.344;2022-09-01T14:18:06;25.60;41.40
12901;DHT22;6518;50.930;5.344;2022-09-01T14:20:35;25.60;41.40
12901;DHT22;6518;50.930;5.344;2022-09-01T14:23:04;25.70;41.60
12901;DHT22;6518;50.930;5.344;2022-09-01T14:25:33;25.70;41.50
12901;DHT22;6518;50.930;5.344;2022-09-01T14:28:00;25.70;41.50
12901;DHT22;6518;50.930;5.344;2022-09-01T14:30:30;25.70;41.20
12901;DHT22;6518;50.930;5.344;2022-09-01T14:32:58;25.70;41.30
12901;DHT22;6518;50.930;5.344;2022-09-01T14:35:25;25.70;41.30
12901;DHT22;6518;50.930;5.344;2022-09-01T14:37:53;25.80;41.40
12901;DHT22;6518;50.930;5.344;2022-09-01T14:40:21;25.70;41.20
12901;DHT22;6518;50.930;5.344;2022-09-01T14:42:50;25.80;41.40
12901;DHT22;6518;50.930;5.344;2022-09-01T14:45:19;25.70;41.50
12901;DHT22;6518;50.930;5.344;2022-09-01T14:47:50;25.80;41.30
12901;DHT22;6518;50.930;5.344;2022-09-01T14:50:18;25.80;41.20
12901;DHT22;6518;50.930;5.344;2022-09-01T14:52:47;25.80;41.20
12901;DHT22;6518;50.930;5.344;2022-09-01T14:55:14;25.80;41.30
12901;DHT22;6518;50.930;5.344;2022-09-01T14:57:41;25.80;41.30
12901;DHT22;6518;50.930;5.344;2022-09-01T15:00:11;25.80;41.40
12901;DHT22;6518;50.930;5.344;2022-09-01T15:02:39;25.80;41.30
12901;DHT22;6518;50.930;5.344;2022-09-01T15:05:09;25.80;41.40
12901;DHT22;6518;50.930;5.344;2022-09-01T15:07:37;25.80;41.40
12901;DHT22;6518;50.930;5.344;2022-09-01T15:10:06;25.90;41.40
12901;DHT22;6518;50.930;5.344;2022-09-01T15:12:33;25.90;41.40
12901;DHT22;6518;50.930;5.344;2022-09-01T15:15:01;25.90;41.20
12901;DHT22;6518;50.930;5.344;2022-09-01T15:17:28;25.90;41.10
12901;DHT22;6518;50.930;5.344;2022-09-01T15:19:55;25.90;41.30
12901;DHT22;6518;50.930;5.344;2022-09-01T15:22:44;25.90;41.40
12901;DHT22;6518;50.930;5.344;2022-09-01T15:25:11;25.90;41.20
12901;DHT22;6518;50.930;5.344;2022-09-01T15:27:38;25.90;41.40
12901;DHT22;6518;50.930;5.344;2022-09-01T15:30:06;25.90;41.50
12901;DHT22;6518;50.930;5.344;2022-09-01T15:32:40;25.90;41.50
12901;DHT22;6518;50.930;5.344;2022-09-01T15:35:07;25.90;41.60
12901;DHT22;6518;50.930;5.344;2022-09-01T15:37:35;25.90;41.50
12901;DHT22;6518;50.930;5.344;2022-09-01T15:40:05;25.90;41.60
12901;DHT22;6518;50.930;5.344;2022-09-01T15:42:33;25.90;41.70
12901;DHT22;6518;50.930;5.344;2022-09-01T15:45:00;25.90;41.90
12901;DHT22;6518;50.930;5.344;2022-09-01T15:47:28;25.90;42.00
12901;DHT22;6518;50.930;5.344;2022-09-01T15:49:55;25.90;42.00
12901;DHT22;6518;50.930;5.344;2022-09-01T15:52:22;25.90;42.00
12901;DHT22;6518;50.930;5.344;2022-09-01T15:54:49;26.00;42.10
12901;DHT22;6518;50.930;5.344;2022-09-01T15:57:19;26.00;42.10
12901;DHT22;6518;50.930;5.344;2022-09-01T15:59:46;26.10;42.00
12901;DHT22;6518;50.930;5.344;2022-09-01T16:02:13;26.00;42.00
12901;DHT22;6518;50.930;5.344;2022-09-01T16:04:42;26.00;42.10
12901;DHT22;6518;50.930;5.344;2022-09-01T16:07:09;26.00;42.10
12901;DHT22;6518;50.930;5.344;2022-09-01T16:09:36;26.00;42.20
12901;DHT22;6518;50.930;5.344;2022-09-01T16:12:03;26.00;42.20
12901;DHT22;6518;50.930;5.344;2022-09-01T16:14:32;26.00;42.10
12901;DHT22;6518;50.930;5.344;2022-09-01T16:17:02;26.00;41.90
12901;DHT22;6518;50.930;5.344;2022-09-01T16:19:36;26.00;41.90